Time;durP1;ratioP1;P1;durP2;ratioP2;P2;SDS_P1;SDS_P2;PMS_P1;PMS_P2;Temp;Humidity;BMP_temperature;BMP_pressure;BME280_temperature;BME280_humidity;BME280_pressure;Samples;Min_cycle;Max_cycle;Signal;HPM_P1;HPM_P2
2022/06/26 00:00:08;;;;;;;0.60;0.50;;;15.60;1.40;;;17.16;100.00;95151.56;647124;216;31483;-74
2022/06/26 00:02:49;;;;;;;0.70;0.50;;;15.60;1.40;;;16.97;100.00;95151.87;646612;212;31504;-74
2022/06/26 00:05:31;;;;;;;2.37;0.82;;;15.60;1.40;;;16.92;100.00;95153.95;618471;226;31948;-74
2022/06/26 00:08:13;;;;;;;1.10;1.00;;;15.60;1.40;;;16.92;100.00;95155.97;646796;216;31499;-74
2022/06/26 00:10:54;;;;;;;2.90;0.60;;;15.50;1.40;;;16.97;100.00;95159.34;645538;212;31492;-74
2022/06/26 00:13:36;;;;;;;0.70;0.60;;;15.50;1.40;;;16.98;100.00;95154.99;648074;216;31513;-73
2022/06/26 00:16:19;;;;;;;1.25;0.80;;;15.50;1.40;;;16.95;100.00;95155.31;646149;212;32599;-73
2022/06/26 00:18:59;;;;;;;1.37;1.27;;;15.50;1.40;;;17.00;100.00;95155.66;646559;212;31575;-74
2022/06/26 00:21:41;;;;;;;1.67;0.70;;;15.50;1.40;;;17.00;100.00;95152.28;645702;216;31559;-74
2022/06/26 00:24:23;;;;;;;0.90;0.70;;;15.50;1.40;;;17.10;100.00;95151.40;647335;216;31610;-75
2022/06/26 00:27:06;;;;;;;1.20;1.00;;;15.60;1.40;;;17.15;100.00;95150.98;631533;218;31941;-74
2022/06/26 00:29:47;;;;;;;0.70;0.70;;;15.50;1.40;;;17.14;100.00;95145.06;648145;216;31533;-74
2022/06/26 00:32:29;;;;;;;0.75;0.62;;;15.50;1.40;;;17.11;100.00;95149.53;647107;212;31508;-74
2022/06/26 00:35:50;;;;;;;1.12;0.70;;;15.50;1.40;;;17.04;100.00;95148.02;646392;216;32130;-74
2022/06/26 00:38:32;;;;;;;1.10;0.50;;;15.60;1.40;;;17.18;100.00;95152.27;647407;216;31597;-73
2022/06/26 00:41:14;;;;;;;1.10;0.70;;;15.70;1.40;;;17.08;100.00;95150.00;646071;213;31606;-74
2022/06/26 00:43:56;;;;;;;1.20;0.80;;;15.60;1.40;;;17.12;100.00;95154.18;647722;216;31587;-73
2022/06/26 00:46:40;;;;;;;1.33;0.50;;;15.60;1.40;;;17.15;100.00;95156.08;646621;216;31816;-73
2022/06/26 00:49:22;;;;;;;1.80;1.10;;;15.60;1.40;;;17.24;100.00;95158.48;646455;216;31500;-73
2022/06/26 00:52:04;;;;;;;0.60;0.50;;;15.60;1.40;;;17.29;100.00;95162.38;644886;212;31716;-74
2022/06/26 00:54:46;;;;;;;1.50;0.80;;;15.70;1.40;;;17.28;100.00;95161.69;646396;216;31480;-74
2022/06/26 00:57:28;;;;;;;0.80;0.50;;;15.80;1.40;;;17.18;100.00;95161.84;646209;212;31545;-74
2022/06/26 01:00:12;;;;;;;1.00;0.90;;;15.70;1.40;;;17.15;100.00;95156.53;647076;212;31473;-74
2022/06/26 01:02:53;;;;;;;3.80;0.80;;;15.60;1.40;;;17.20;100.00;95155.72;648295;216;31755;-73
2022/06/26 01:05:35;;;;;;;0.98;0.60;;;15.60;1.40;;;17.28;100.00;95154.16;646300;216;31998;-73
2022/06/26 01:08:17;;;;;;;0.80;0.60;;;15.60;1.40;;;17.23;100.00;95153.50;646034;216;31500;-74
2022/06/26 01:11:02;;;;;;;1.17;1.08;;;15.60;1.40;;;17.29;100.00;95154.82;646099;212;32134;-74
2022/06/26 01:13:43;;;;;;;0.65;0.50;;;15.70;1.40;;;17.40;100.00;95157.73;646915;216;32443;-74
2022/06/26 01:16:28;;;;;;;1.00;0.77;;;15.70;1.40;;;17.48;100.00;95150.00;646318;216;31515;-73
2022/06/26 01:21:47;;;;;;;0.80;0.65;;;15.80;1.40;;;17.45;100.00;95148.45;647254;212;31627;-74
2022/06/26 01:24:28;;;;;;;1.00;0.60;;;15.80;1.40;;;17.55;100.00;95149.13;646037;216;31467;-74
2022/06/26 01:27:10;;;;;;;1.40;0.80;;;15.90;1.40;;;17.64;100.00;95154.36;645471;216;31556;-73
2022/06/26 01:29:52;;;;;;;0.40;0.40;;;15.90;1.40;;;17.63;100.00;95150.08;646605;212;31628;-74
2022/06/26 01:32:34;;;;;;;1.80;0.80;;;15.90;1.40;;;17.61;100.00;95147.65;647313;216;31488;-75
2022/06/26 01:35:54;;;;;;;1.50;0.80;;;15.90;1.40;;;17.58;100.00;95148.77;645512;212;31981;-74
2022/06/26 01:38:35;;;;;;;0.98;0.98;;;15.90;1.40;;;17.53;100.00;95145.52;646990;216;31466;-74
2022/06/26 01:41:17;;;;;;;1.55;0.73;;;15.90;1.40;;;17.51;100.00;95143.50;647894;216;31485;-74
2022/06/26 01:43:59;;;;;;;1.27;0.82;;;15.90;1.40;;;17.51;100.00;95146.58;646071;216;31472;-74
2022/06/26 01:46:40;;;;;;;1.00;0.80;;;15.80;1.40;;;17.54;100.00;95144.20;645715;216;31691;-74
2022/06/26 01:49:25;;;;;;;0.90;0.40;;;15.90;1.40;;;17.52;100.00;95139.19;647106;216;31576;-74
2022/06/26 01:52:04;;;;;;;0.47;0.47;;;15.90;1.40;;;17.58;100.00;95133.92;645368;216;31633;-73
2022/06/26 01:54:46;;;;;;;2.45;1.00;;;15.90;1.40;;;17.55;100.00;95132.64;646667;216;31519;-74
2022/06/26 01:57:28;;;;;;;0.70;0.60;;;15.90;1.40;;;17.09;100.00;95147.95;645198;216;31483;-73
2022/06/26 02:00:11;;;;;;;1.30;0.80;;;15.80;1.40;;;16.79;100.00;95145.14;647287;216;31487;-73
2022/06/26 02:02:53;;;;;;;0.80;0.60;;;15.60;1.40;;;16.93;100.00;95139.45;647374;216;31515;-74
2022/06/26 02:05:37;;;;;;;0.77;0.60;;;15.60;1.40;;;17.24;100.00;95150.66;645557;216;31534;-73
2022/06/26 02:08:19;;;;;;;0.60;0.50;;;15.70;1.40;;;17.10;100.00;95153.50;647423;212;32126;-74
2022/06/26 02:13:49;;;;;;;1.10;0.70;;;15.90;1.40;;;17.14;100.00;95173.50;646176;216;32189;-74
2022/06/26 02:16:30;;;;;;;0.80;0.80;;;15.90;1.40;;;17.10;100.00;95168.82;645714;216;31801;-74
2022/06/26 02:19:11;;;;;;;0.80;0.70;;;15.80;1.40;;;17.13;100.00;95160.43;647460;216;42752;-74
2022/06/26 02:21:53;;;;;;;0.70;0.70;;;15.70;1.40;;;17.36;100.00;95166.36;646576;216;42527;-75
2022/06/26 02:24:36;;;;;;;1.10;1.00;;;15.90;1.40;;;17.52;100.00;95182.07;646635;212;31489;-74
2022/06/26 02:27:17;;;;;;;0.80;0.80;;;16.10;1.40;;;17.58;100.00;95182.28;647083;212;31502;-74
2022/06/26 02:30:01;;;;;;;1.48;1.08;;;16.20;1.40;;;17.78;100.00;95187.48;618348;225;31838;-75
2022/06/26 02:32:43;;;;;;;1.17;0.82;;;16.20;1.40;;;17.71;100.00;95199.70;647415;216;32135;-74
2022/06/26 02:35:55;;;;;;;1.02;0.93;;;16.20;1.40;;;17.65;100.00;95200.58;645878;212;31592;-74
2022/06/26 02:38:36;;;;;;;2.00;1.00;;;16.20;1.40;;;17.66;100.00;95201.52;646464;216;31491;-75
2022/06/26 02:41:17;;;;;;;1.20;0.90;;;16.10;1.40;;;17.74;100.00;95208.13;647081;216;31910;-74
2022/06/26 02:43:59;;;;;;;1.30;1.00;;;16.10;1.40;;;17.72;100.00;95205.49;647826;216;31507;-74
2022/06/26 02:46:41;;;;;;;1.80;1.10;;;16.30;1.40;;;17.79;100.00;95216.02;645447;216;31519;-74
2022/06/26 02:49:22;;;;;;;0.88;0.70;;;16.30;1.40;;;17.67;100.00;95223.69;646879;216;31976;-74
2022/06/26 02:52:07;;;;;;;0.82;0.80;;;16.20;1.40;;;17.58;100.00;95227.97;644797;212;31625;-74
2022/06/26 02:54:49;;;;;;;1.10;0.82;;;16.20;1.40;;;17.65;100.00;95226.98;645955;216;31506;-73
2022/06/26 02:57:31;;;;;;;0.98;0.93;;;16.20;1.40;;;17.66;100.00;95232.63;620232;222;32089;-74
2022/06/26 03:00:13;;;;;;;1.90;1.10;;;16.20;1.40;;;17.63;100.00;95234.76;646146;212;31488;-74
2022/06/26 03:02:57;;;;;;;1.17;0.68;;;16.20;1.40;;;17.64;100.00;95235.38;647260;216;31585;-74
2022/06/26 03:05:39;;;;;;;1.33;0.73;;;16.30;1.40;;;17.70;100.00;95235.23;646742;216;31956;-74
2022/06/26 03:08:21;;;;;;;1.90;0.90;;;16.30;1.40;;;17.78;100.00;95231.73;646030;212;42478;-74
2022/06/26 03:11:06;;;;;;;1.10;0.90;;;16.30;1.40;;;17.79;100.00;95231.37;646374;216;31614;-75
2022/06/26 03:13:48;;;;;;;1.20;0.80;;;16.30;1.40;;;17.96;100.00;95236.99;646707;216;31576;-75
2022/06/26 03:16:29;;;;;;;1.02;0.93;;;16.40;1.40;;;18.01;100.00;95233.95;618222;226;31789;-74
2022/06/26 03:19:11;;;;;;;1.80;1.08;;;16.40;1.40;;;17.92;100.00;95240.28;647378;212;31735;-74
2022/06/26 03:21:53;;;;;;;1.70;0.93;;;16.50;1.40;;;17.96;100.00;95239.83;646854;216;31492;-73
2022/06/26 03:24:34;;;;;;;3.78;0.85;;;16.50;1.40;;;17.83;100.00;95231.25;646780;216;31509;-74
2022/06/26 03:27:16;;;;;;;1.70;0.90;;;16.40;1.40;;;17.78;100.00;95231.95;646931;216;31903;-74
2022/06/26 03:29:58;;;;;;;0.70;0.70;;;16.30;1.40;;;17.70;100.00;95235.27;646497;212;31497;-74
2022/06/26 03:32:39;;;;;;;1.60;0.73;;;16.10;1.40;;;17.68;100.00;95236.67;646436;212;32119;-74
2022/06/26 03:35:51;;;;;;;1.55;1.05;;;16.10;1.40;;;17.69;100.00;95235.81;648102;216;31464;-74
2022/06/26 03:38:33;;;;;;;0.90;0.77;;;16.20;1.40;;;17.75;100.00;95244.73;646345;216;31464;-74
2022/06/26 03:41:17;;;;;;;1.30;0.90;;;16.30;1.40;;;17.68;100.00;95244.61;645944;212;31565;-74
2022/06/26 03:43:59;;;;;;;0.55;0.50;;;16.30;1.40;;;17.70;100.00;95252.39;646320;216;31480;-74
2022/06/26 03:46:41;;;;;;;1.00;0.70;;;16.30;1.40;;;17.85;100.00;95252.84;646109;216;31601;-74
2022/06/26 03:49:23;;;;;;;1.27;1.17;;;16.40;1.40;;;18.01;100.00;95249.70;646837;216;31476;-74
2022/06/26 03:54:40;;;;;;;1.10;1.00;;;16.60;1.40;;;18.02;100.00;95253.91;619587;226;31842;-74
2022/06/26 03:57:25;;;;;;;0.70;0.70;;;16.60;1.40;;;18.18;100.00;95259.56;647209;216;31522;-74
2022/06/26 04:00:08;;;;;;;1.27;0.95;;;16.60;1.40;;;18.27;100.00;95263.00;645815;216;31513;-74
2022/06/26 04:02:50;;;;;;;0.90;0.80;;;16.60;1.40;;;18.25;100.00;95266.95;645853;216;31659;-74
2022/06/26 04:05:35;;;;;;;0.82;0.65;;;16.60;1.40;;;18.18;100.00;95267.59;646936;216;31541;-74
2022/06/26 04:08:16;;;;;;;1.70;1.20;;;16.60;1.40;;;18.36;100.00;95270.31;645924;216;31623;-74
2022/06/26 04:10:58;;;;;;;0.90;0.80;;;16.70;1.40;;;18.37;100.00;95270.40;647105;212;31470;-74
2022/06/26 04:13:43;;;;;;;0.80;0.65;;;16.80;1.40;;;18.49;100.00;95274.36;646140;216;31519;-74
2022/06/26 04:16:25;;;;;;;1.20;1.10;;;16.90;1.40;;;18.55;100.00;95275.05;648039;216;31493;-74
2022/06/26 04:19:06;;;;;;;0.73;0.73;;;17.00;1.40;;;18.66;100.00;95273.81;645954;212;31804;-74
2022/06/26 04:21:51;;;;;;;0.75;0.70;;;17.00;1.40;;;18.67;100.00;95275.66;646534;216;31659;-74
2022/06/26 04:24:33;;;;;;;0.70;0.70;;;17.10;1.40;;;18.76;100.00;95282.31;645605;216;31469;-74
2022/06/26 04:27:14;;;;;;;1.63;0.77;;;17.20;1.40;;;18.86;100.00;95282.47;646697;216;31626;-74
2022/06/26 04:29:56;;;;;;;1.10;1.00;;;17.30;1.40;;;18.88;100.00;95283.37;645933;212;31602;-74
2022/06/26 04:32:41;;;;;;;2.33;0.77;;;17.40;1.40;;;18.97;100.00;95284.45;647074;216;31488;-74
2022/06/26 04:35:50;;;;;;;0.98;0.80;;;17.50;1.40;;;18.98;100.00;95281.06;646782;216;31576;-74
2022/06/26 04:38:32;;;;;;;0.82;0.80;;;17.60;1.40;;;18.97;100.00;95277.36;646246;216;31495;-73
2022/06/26 04:44:02;;;;;;;1.00;0.70;;;17.60;1.40;;;19.08;100.00;95277.61;646515;216;31482;-74
2022/06/26 04:46:46;;;;;;;1.35;0.75;;;17.70;1.40;;;19.17;100.00;95275.73;645766;216;31510;-74
2022/06/26 04:49:25;;;;;;;0.95;0.90;;;17.70;1.40;;;19.13;100.00;95276.88;647014;212;31515;-75
2022/06/26 04:52:10;;;;;;;1.00;0.90;;;17.70;1.40;;;19.17;100.00;95273.77;618766;226;31973;-75
2022/06/26 04:54:52;;;;;;;1.00;0.80;;;17.80;1.40;;;18.93;100.00;95274.50;646278;216;31556;-74
2022/06/26 04:57:33;;;;;;;0.70;0.62;;;17.70;1.40;;;18.87;100.00;95269.28;646072;216;31793;-74
2022/06/26 05:00:16;;;;;;;1.35;0.80;;;17.80;1.40;;;18.96;100.00;95270.03;645115;212;31570;-74
2022/06/26 05:03:02;;;;;;;2.05;0.93;;;17.80;1.40;;;18.92;100.00;95269.52;646687;212;32064;-74
2022/06/26 05:05:44;;;;;;;1.00;0.70;;;17.70;1.40;;;18.97;100.00;95273.11;645649;216;31911;-74
2022/06/26 05:08:25;;;;;;;0.90;0.70;;;17.80;1.40;;;19.23;100.00;95270.39;618553;226;31963;-75
2022/06/26 05:11:07;;;;;;;1.00;0.70;;;17.90;1.40;;;19.30;100.00;95274.03;646315;216;31573;-74
2022/06/26 05:13:49;;;;;;;1.70;1.30;;;17.90;1.40;;;19.35;100.00;95279.64;647232;216;31586;-74
2022/06/26 05:16:31;;;;;;;0.60;0.60;;;17.90;1.40;;;19.43;100.00;95281.25;646403;216;31524;-75
2022/06/26 05:19:12;;;;;;;0.90;0.80;;;18.00;1.40;;;19.52;100.00;95283.53;617720;222;42490;-75
2022/06/26 05:21:54;;;;;;;1.10;0.60;;;18.20;1.40;;;19.63;100.00;95279.17;642936;216;31556;-74
2022/06/26 05:24:36;;;;;;;1.15;0.70;;;18.20;1.40;;;19.48;100.00;95272.56;646984;216;42105;-74
2022/06/26 05:27:17;;;;;;;1.00;0.65;;;18.30;1.40;;;19.49;100.00;95275.19;644780;212;31599;-73
2022/06/26 05:29:59;;;;;;;0.75;0.75;;;18.30;1.40;;;19.48;100.00;95276.14;646969;212;31587;-73
2022/06/26 05:32:41;;;;;;;0.68;0.68;;;18.30;1.40;;;19.52;100.00;95277.59;646921;216;31498;-75
2022/06/26 05:35:54;;;;;;;0.82;0.82;;;18.20;1.40;;;19.44;100.00;95275.02;646705;216;31515;-73
2022/06/26 05:38:36;;;;;;;0.93;0.80;;;18.20;1.40;;;19.48;100.00;95279.16;645844;216;31546;-73
2022/06/26 05:41:18;;;;;;;1.00;0.70;;;18.10;1.40;;;19.39;100.00;95280.23;646255;216;31480;-73
2022/06/26 05:43:59;;;;;;;1.10;0.95;;;18.10;1.40;;;19.28;100.00;95285.34;647831;212;42734;-73
2022/06/26 05:46:42;;;;;;;1.00;0.70;;;18.10;1.40;;;19.25;100.00;95278.84;647602;216;32399;-73
2022/06/26 05:49:26;;;;;;;0.88;0.60;;;18.00;1.40;;;19.20;100.00;95283.39;647413;216;31733;-73
2022/06/26 05:52:07;;;;;;;1.60;1.00;;;18.00;1.40;;;19.21;100.00;95284.55;616769;225;32534;-74
2022/06/26 05:54:49;;;;;;;0.90;0.50;;;18.00;1.40;;;19.18;100.00;95283.90;645898;216;31550;-74
2022/06/26 05:57:31;;;;;;;0.80;0.70;;;18.00;1.40;;;19.19;100.00;95284.80;645946;216;31689;-73
2022/06/26 06:00:13;;;;;;;0.60;0.60;;;18.00;1.40;;;19.25;100.00;95290.46;647328;216;31909;-74
2022/06/26 06:02:55;;;;;;;0.68;0.50;;;18.10;1.40;;;19.22;100.00;95293.94;646724;216;42133;-74
2022/06/26 06:05:36;;;;;;;1.00;0.60;;;18.10;1.40;;;19.27;100.00;95294.25;645765;212;31491;-74
2022/06/26 06:08:18;;;;;;;0.80;0.60;;;18.20;1.40;;;19.46;100.00;95292.05;646627;216;31548;-73
2022/06/26 06:11:03;;;;;;;1.15;1.05;;;18.40;1.40;;;19.70;100.00;95294.36;646080;216;32240;-74
2022/06/26 06:13:44;;;;;;;0.77;0.68;;;18.70;1.40;;;19.88;100.00;95297.07;646741;212;42213;-73
2022/06/26 06:16:26;;;;;;;0.90;0.80;;;18.80;1.40;;;19.98;100.00;95298.52;647768;212;31579;-73
2022/06/26 06:19:08;;;;;;;0.60;0.60;;;19.00;1.40;;;20.19;100.00;95304.41;645992;213;31621;-73
2022/06/26 06:21:49;;;;;;;1.10;0.70;;;19.20;1.40;;;20.39;100.00;95304.48;646136;212;31579;-74
2022/06/26 06:24:34;;;;;;;0.80;0.52;;;19.40;1.40;;;20.73;100.00;95302.72;646408;216;42712;-73
2022/06/26 06:27:16;;;;;;;0.80;0.60;;;19.70;1.40;;;20.92;100.00;95307.71;647443;212;31521;-73
2022/06/26 06:29:57;;;;;;;0.80;0.40;;;19.90;1.40;;;20.97;100.00;95305.92;646117;216;32143;-74
2022/06/26 06:32:40;;;;;;;0.60;0.50;;;19.90;1.40;;;21.03;100.00;95306.26;646987;216;31637;-74
2022/06/26 06:35:54;;;;;;;0.60;0.50;;;20.00;1.40;;;20.99;100.00;95301.31;645891;216;42158;-73
2022/06/26 06:38:32;;;;;;;0.82;0.73;;;19.90;1.40;;;21.27;100.00;95306.32;646821;216;31510;-74
2022/06/26 06:41:17;;;;;;;0.90;0.70;;;20.30;1.40;;;21.38;100.00;95308.49;646795;216;31646;-73
2022/06/26 06:43:58;;;;;;;1.00;0.77;;;20.40;1.40;;;21.33;100.00;95311.47;645942;216;32183;-74
2022/06/26 06:46:40;;;;;;;0.60;0.60;;;20.30;1.40;;;21.41;100.00;95308.67;646761;216;31651;-74
2022/06/26 06:49:22;;;;;;;1.48;0.70;;;20.40;1.40;;;21.52;100.00;95312.08;645382;216;31501;-74
2022/06/26 06:52:04;;;;;;;3.00;0.60;;;20.50;1.40;;;21.64;100.00;95310.09;643621;216;31566;-74
2022/06/26 06:54:46;;;;;;;0.90;0.77;;;20.50;1.40;;;21.70;100.00;95310.05;647042;212;31678;-74
2022/06/26 06:57:30;;;;;;;0.62;0.60;;;20.60;1.40;;;21.85;100.00;95302.95;619546;226;31834;-74
2022/06/26 07:00:12;;;;;;;0.70;0.60;;;20.60;1.40;;;21.84;100.00;95299.12;646219;216;31510;-75
2022/06/26 07:02:54;;;;;;;0.70;0.70;;;20.80;1.40;;;21.92;100.00;95301.78;646473;212;31496;-74
2022/06/26 07:05:36;;;;;;;0.98;0.68;;;20.70;1.40;;;21.82;100.00;95299.39;646965;216;31632;-74
2022/06/26 07:08:17;;;;;;;0.77;0.50;;;20.60;1.40;;;21.86;100.00;95303.36;644690;216;31764;-74
2022/06/26 07:10:59;;;;;;;0.85;0.60;;;20.70;1.40;;;22.01;100.00;95304.28;647168;216;31816;-74
2022/06/26 07:13:41;;;;;;;1.20;0.90;;;20.70;1.40;;;22.12;100.00;95305.63;647471;216;31488;-74
2022/06/26 07:16:22;;;;;;;0.70;0.60;;;21.00;1.40;;;22.11;100.00;95303.78;647070;212;31723;-74
2022/06/26 07:19:04;;;;;;;5.10;1.60;;;20.90;1.40;;;22.34;100.00;95304.09;646132;212;31624;-74
2022/06/26 07:21:46;;;;;;;0.80;0.60;;;21.00;1.40;;;22.41;100.00;95303.78;646890;212;31575;-74
2022/06/26 07:24:28;;;;;;;0.60;0.50;;;21.30;1.40;;;22.42;100.00;95301.44;646221;216;31507;-74
2022/06/26 07:27:09;;;;;;;0.70;0.70;;;21.30;1.40;;;22.36;100.00;95301.41;647116;212;31682;-74
2022/06/26 07:29:51;;;;;;;1.60;0.80;;;21.10;1.40;;;22.65;100.00;95294.59;617941;226;32722;-74
2022/06/26 07:32:33;;;;;;;0.70;0.70;;;21.20;1.40;;;22.75;100.00;95297.85;647761;212;32174;-74
2022/06/26 07:35:51;;;;;;;1.80;0.77;;;21.40;1.40;;;22.67;100.00;95297.05;646466;216;31954;-74
2022/06/26 07:38:38;;;;;;;0.88;0.88;;;21.50;1.40;;;22.74;100.00;95293.23;645929;216;42174;-71
2022/06/26 07:41:20;;;;;;;0.68;0.68;;;21.50;1.40;;;22.91;100.00;95295.28;646632;216;31494;-70
2022/06/26 07:44:02;;;;;;;4.20;2.15;;;21.90;1.40;;;23.29;100.00;95294.39;646466;213;31509;-70
2022/06/26 07:46:44;;;;;;;2.03;0.90;;;22.30;1.40;;;23.47;100.00;95294.09;631379;221;31685;-71
2022/06/26 07:49:25;;;;;;;0.70;0.70;;;22.30;1.40;;;23.41;100.00;95291.61;646909;216;31659;-70
2022/06/26 07:52:07;;;;;;;0.82;0.52;;;22.20;1.40;;;23.39;100.00;95287.13;645688;212;31535;-70
2022/06/26 07:54:48;;;;;;;0.80;0.60;;;22.20;1.40;;;23.57;100.00;95280.29;645845;212;34550;-70
2022/06/26 07:57:32;;;;;;;0.70;0.70;;;22.50;1.40;;;23.90;100.00;95279.86;646718;216;31667;-71
2022/06/26 08:00:12;;;;;;;1.40;0.85;;;22.80;1.40;;;24.05;100.00;95281.09;646372;216;31500;-69
2022/06/26 08:02:54;;;;;;;0.70;0.70;;;22.70;1.40;;;24.24;100.00;95279.36;646804;216;31514;-70
2022/06/26 08:05:36;;;;;;;1.30;0.80;;;22.80;1.40;;;24.29;100.00;95277.14;646455;216;31475;-70
2022/06/26 08:08:17;;;;;;;0.80;0.70;;;23.00;1.40;;;24.59;100.00;95277.32;645548;216;38262;-71
2022/06/26 08:10:59;;;;;;;0.65;0.45;;;23.40;1.40;;;24.89;100.00;95271.36;645608;212;31595;-72
2022/06/26 08:13:41;;;;;;;1.20;0.80;;;23.70;1.40;;;24.88;98.89;95269.78;647179;216;33725;-71
2022/06/26 08:16:24;;;;;;;2.97;2.50;;;23.80;1.40;;;24.85;99.63;95266.60;646161;216;31654;-71
2022/06/26 08:19:06;;;;;;;2.05;1.40;;;23.50;1.40;;;24.90;96.18;95259.51;647822;212;31654;-71
2022/06/26 08:24:36;;;;;;;2.03;0.60;;;23.70;1.40;;;25.45;100.00;95254.63;646299;212;32492;-71
2022/06/26 08:27:17;;;;;;;2.80;1.00;;;24.30;1.40;;;25.77;100.00;95251.87;645306;216;31534;-71
2022/06/26 08:29:59;;;;;;;0.60;0.60;;;24.70;1.40;;;26.09;98.13;95249.07;646789;216;31499;-72
2022/06/26 08:32:40;;;;;;;0.60;0.60;;;25.00;1.40;;;25.95;91.74;95251.96;645900;216;31594;-73
2022/06/26 08:35:55;;;;;;;3.10;0.80;;;25.00;1.40;;;26.12;89.44;95248.70;646979;216;31666;-72
2022/06/26 08:38:39;;;;;;;0.90;0.70;;;24.70;1.40;;;26.19;88.44;95248.17;618486;226;31938;-72
2022/06/26 08:41:21;;;;;;;0.88;0.57;;;25.00;1.40;;;26.20;91.01;95245.57;645556;212;31866;-71
2022/06/26 08:44:00;;;;;;;0.70;0.52;;;25.10;1.40;;;26.53;94.82;95247.21;647431;216;31495;-72
2022/06/26 08:46:42;;;;;;;3.22;1.80;;;25.50;1.40;;;26.16;87.40;95250.20;647060;216;31565;-71
2022/06/26 08:49:24;;;;;;;1.52;1.30;;;24.90;1.40;;;26.49;90.23;95251.98;647182;212;31647;-70
2022/06/26 08:52:06;;;;;;;0.90;0.60;;;24.90;1.40;;;26.85;92.52;95247.88;646476;216;31544;-73
2022/06/26 08:54:47;;;;;;;1.08;0.62;;;25.70;1.40;;;27.35;89.39;95247.06;646980;216;31514;-71
2022/06/26 08:57:33;;;;;;;0.70;0.60;;;26.10;1.40;;;27.18;88.71;95244.47;646667;212;32192;-71
2022/06/26 09:00:14;;;;;;;1.00;0.90;;;25.70;1.40;;;27.47;87.19;95242.59;617620;226;32849;-72
2022/06/26 09:02:56;;;;;;;3.45;0.80;;;26.30;1.40;;;27.91;83.10;95238.88;646787;212;32353;-71
2022/06/26 09:05:37;;;;;;;0.50;0.50;;;26.70;1.40;;;27.77;84.46;95240.02;646877;216;32123;-72
2022/06/26 09:08:25;;;;;;;0.80;0.60;;;26.50;1.40;;;28.01;84.96;95241.55;648033;212;31889;-71
2022/06/26 09:11:06;;;;;;;1.83;0.60;;;26.70;1.40;;;28.13;81.12;95244.24;617399;222;43083;-71
2022/06/26 09:13:59;;;;;;;0.80;0.60;;;27.00;1.40;;;28.58;79.60;95247.27;646466;216;31544;-71
2022/06/26 09:16:39;;;;;;;1.05;0.60;;;27.40;1.40;;;28.25;72.61;95248.59;646454;212;32016;-71
2022/06/26 09:19:20;;;;;;;1.60;1.40;;;27.10;1.40;;;28.17;77.37;95249.02;645998;216;31783;-71
2022/06/26 09:22:13;;;;;;;1.00;0.80;;;27.20;1.40;;;28.16;72.86;95247.16;647354;212;42184;-71
2022/06/26 09:24:55;;;;;;;1.10;0.90;;;27.10;1.40;;;28.66;72.76;95249.27;647098;212;31499;-70
2022/06/26 09:27:39;;;;;;;1.00;0.90;;;27.10;1.40;;;28.78;70.42;95254.23;646439;216;31506;-72
2022/06/26 09:30:21;;;;;;;0.60;0.60;;;27.40;1.40;;;29.38;69.78;95251.27;645721;216;31731;-71
2022/06/26 09:35:52;;;;;;;1.20;0.80;;;33.50;1.40;;;31.51;64.05;95235.73;647096;216;32436;-75
2022/06/26 09:38:40;;;;;;;1.00;0.90;;;33.40;1.40;;;32.32;58.47;95234.77;645763;216;31825;-71
2022/06/26 09:41:30;;;;;;;0.90;0.70;;;33.10;1.40;;;32.59;60.16;95238.42;645752;212;31512;-71
2022/06/26 09:44:11;;;;;;;0.70;0.70;;;33.30;1.40;;;33.06;53.06;95237.36;645854;216;31575;-71
2022/06/26 09:46:53;;;;;;;2.80;0.70;;;33.90;1.40;;;34.43;49.18;95233.08;645971;216;32143;-71
2022/06/26 09:49:34;;;;;;;1.42;1.33;;;32.90;1.40;;;32.95;50.27;95231.03;646418;212;31554;-71
2022/06/26 09:52:16;;;;;;;0.60;0.60;;;32.60;1.40;;;34.06;55.43;95222.69;645378;216;31682;-71
2022/06/26 09:57:32;;;;;;;0.82;0.77;;;33.70;1.40;;;35.48;50.80;95218.52;646007;212;31582;-72
2022/06/26 10:00:14;;;;;;;0.70;0.70;;;34.20;1.40;;;36.01;48.54;95214.30;646139;212;42211;-72
2022/06/26 10:06:25;;;;;;;1.50;1.00;;;34.80;1.40;;;37.97;44.50;95205.96;646736;212;31497;-72
2022/06/26 10:08:25;;;;;;;0.70;0.70;;;35.20;1.40;;;36.27;48.36;95209.88;647058;216;31497;-72
2022/06/26 10:13:43;;;;;;;0.80;0.80;;;35.20;1.40;;;36.74;43.73;95203.58;646467;216;42140;-74
2022/06/26 10:16:34;;;;;;;0.70;0.70;;;33.80;1.40;;;36.83;50.57;95206.20;646824;212;31681;-75
2022/06/26 10:19:41;;;;;;;0.75;0.75;;;31.30;1.40;;;36.35;47.02;95202.67;647501;216;31563;-77
2022/06/26 10:22:25;;;;;;;1.20;0.95;;;30.70;1.40;;;32.11;49.98;95210.67;646977;216;36442;-75
2022/06/26 10:25:07;;;;;;;0.80;0.70;;;29.60;1.40;;;33.06;51.91;95206.05;647175;216;31532;-75
2022/06/26 10:27:55;;;;;;;0.70;0.70;;;30.10;1.40;;;35.00;50.75;95200.61;619288;226;31888;-77
2022/06/26 10:30:37;;;;;;;1.00;0.80;;;30.70;1.40;;;33.89;50.14;95207.25;646749;212;31568;-78
2022/06/26 10:35:57;;;;;;;1.12;0.70;;;31.40;1.40;;;35.46;50.69;95196.17;648037;216;31478;-76
2022/06/26 10:38:39;;;;;;;0.70;0.70;;;31.60;1.40;;;33.87;53.60;95204.99;620927;222;31825;-75
2022/06/26 10:44:09;;;;;;;1.10;1.00;;;31.00;1.40;;;32.51;52.64;95207.87;646941;216;31569;-76
2022/06/26 10:46:56;;;;;;;3.08;2.80;;;30.20;1.40;;;33.49;55.10;95201.55;618726;222;32131;-75
2022/06/26 10:49:32;;;;;;;0.70;0.70;;;30.80;1.40;;;32.48;53.58;95199.80;647756;216;31803;-76
2022/06/26 10:52:31;;;;;;;0.70;0.60;;;30.40;1.40;;;32.05;51.89;95197.91;616740;222;31907;-77
2022/06/26 10:55:11;;;;;;;0.82;0.82;;;30.00;1.40;;;32.68;52.76;95196.69;647586;213;42739;-74
2022/06/26 10:57:53;;;;;;;1.20;0.80;;;30.50;1.40;;;34.25;50.02;95190.33;647453;216;31495;-75
2022/06/26 11:00:35;;;;;;;1.30;0.50;;;31.00;1.40;;;33.53;49.95;95196.89;645646;212;32130;-74
2022/06/26 11:03:17;;;;;;;0.90;0.90;;;30.90;1.40;;;33.85;51.38;95194.80;619615;226;32131;-74
2022/06/26 11:06:01;;;;;;;0.80;0.70;;;31.10;1.40;;;33.36;49.78;95201.29;647340;212;31605;-76
2022/06/26 11:08:49;;;;;;;0.80;0.70;;;31.20;1.40;;;34.51;48.27;95196.30;647606;212;31512;-77
2022/06/26 11:11:32;;;;;;;1.00;0.80;;;31.40;1.40;;;33.75;50.10;95193.76;647367;216;31530;-79
2022/06/26 11:14:19;;;;;;;0.73;0.70;;;31.10;1.40;;;33.04;50.72;95192.16;647699;216;31866;-77
2022/06/26 11:17:05;;;;;;;0.80;0.80;;;31.10;1.40;;;34.56;49.88;95190.45;645235;216;31462;-76
2022/06/26 11:22:41;;;;;;;1.40;0.80;;;31.80;1.40;;;33.32;50.20;95190.91;646928;216;31473;-79
2022/06/26 11:25:23;;;;;;;1.30;0.80;;;31.10;1.40;;;33.44;52.56;95187.62;643759;216;31547;-77
2022/06/26 11:28:11;;;;;;;0.77;0.77;;;31.30;1.40;;;34.53;51.90;95187.73;647952;216;32399;-77
2022/06/26 11:30:55;;;;;;;1.10;0.80;;;32.10;1.40;;;34.60;47.64;95178.18;647207;216;31634;-78
2022/06/26 11:36:12;;;;;;;0.80;0.70;;;31.90;1.40;;;35.04;46.52;95176.84;646578;216;31493;-77
2022/06/26 11:38:59;;;;;;;0.70;0.70;;;31.70;1.40;;;34.46;47.80;95177.45;646836;216;31565;-78
2022/06/26 11:41:42;;;;;;;1.10;0.80;;;30.70;1.40;;;35.37;47.94;95168.23;646947;216;31609;-77
2022/06/26 11:44:30;;;;;;;1.25;0.70;;;31.50;1.40;;;34.87;47.70;95167.52;647132;216;31532;-76
2022/06/26 11:47:18;;;;;;;0.85;0.73;;;32.30;1.40;;;33.06;50.02;95182.23;645356;216;31556;-76
2022/06/26 11:50:03;;;;;;;2.90;0.80;;;30.90;1.40;;;33.94;53.54;95175.52;646299;212;31687;-77
2022/06/26 11:52:45;;;;;;;1.70;0.60;;;31.80;1.40;;;35.25;50.01;95170.42;616510;222;32050;-76
2022/06/26 11:55:26;;;;;;;1.20;1.10;;;32.50;1.40;;;35.82;47.82;95176.62;646802;215;31583;-75
2022/06/26 11:58:08;;;;;;;1.90;0.70;;;32.30;1.40;;;34.44;50.63;95170.63;647130;212;31501;-75
2022/06/26 12:01:08;;;;;;;1.10;1.00;;;31.50;1.40;;;35.48;49.04;95164.22;646714;216;31503;-78
2022/06/26 12:03:51;;;;;;;0.80;0.80;;;32.70;1.40;;;36.50;46.04;95163.90;617990;225;31843;-77